Time;durP1;ratioP1;P1;durP2;ratioP2;P2;SDS_P1;SDS_P2;PMS_P1;PMS_P2;Temp;Humidity;BMP_temperature;BMP_pressure;BME280_temperature;BME280_humidity;BME280_pressure;Samples;Min_cycle;Max_cycle;Signal;HPM_P1;HPM_P2
2021/05/11 00:01:06;;;;;;;5.72;3.95;;;;;;;;;;5061350;28;20068;-78
2021/05/11 00:03:32;;;;;;;8.93;3.83;;;;;;;;;;5044683;28;20390;-77
2021/05/11 00:05:58;;;;;;;4.13;3.55;;;;;;;;;;5061488;28;20111;-77
2021/05/11 00:08:23;;;;;;;5.32;3.30;;;;;;;;;;5060691;28;20568;-77
2021/05/11 00:10:49;;;;;;;5.32;3.70;;;;;;;;;;5058356;28;20033;-77
2021/05/11 00:13:14;;;;;;;3.47;3.05;;;;;;;;;;5058581;28;20079;-77
2021/05/11 00:15:39;;;;;;;3.50;3.15;;;;;;;;;;5040832;28;20047;-77
2021/05/11 00:18:05;;;;;;;5.22;3.70;;;;;;;;;;5059704;28;20029;-77
2021/05/11 00:20:30;;;;;;;3.70;3.30;;;;;;;;;;5060588;28;20052;-77
2021/05/11 00:22:56;;;;;;;3.35;2.95;;;;;;;;;;5043130;28;20098;-77
2021/05/11 00:25:22;;;;;;;3.55;3.20;;;;;;;;;;5047210;28;20042;-77
2021/05/11 00:27:47;;;;;;;5.80;3.03;;;;;;;;;;5038751;28;20025;-77
2021/05/11 00:30:13;;;;;;;4.43;3.53;;;;;;;;;;5022152;28;20072;-77
2021/05/11 00:32:39;;;;;;;4.70;3.17;;;;;;;;;;5038035;28;20049;-77
2021/05/11 00:35:05;;;;;;;4.55;3.70;;;;;;;;;;5039624;28;20033;-77
2021/05/11 00:37:30;;;;;;;4.47;3.92;;;;;;;;;;5038565;28;20037;-77
2021/05/11 00:39:55;;;;;;;4.63;3.72;;;;;;;;;;5037559;28;20033;-78
2021/05/11 00:42:21;;;;;;;4.68;3.80;;;;;;;;;;5038730;28;20449;-77
2021/05/11 00:44:46;;;;;;;5.45;3.83;;;;;;;;;;5037609;28;20037;-78
2021/05/11 00:47:12;;;;;;;4.68;4.18;;;;;;;;;;5036314;28;20037;-78
2021/05/11 00:49:37;;;;;;;4.75;4.20;;;;;;;;;;5035609;28;20037;-78
2021/05/11 00:52:05;;;;;;;4.70;3.60;;;;;;;;;;5035540;28;20184;-77
2021/05/11 00:54:31;;;;;;;4.32;3.80;;;;;;;;;;5036345;28;20021;-78
2021/05/11 00:56:57;;;;;;;4.28;3.88;;;;;;;;;;5036382;28;20506;-78
2021/05/11 00:59:26;;;;;;;4.88;3.83;;;;;;;;;;5035900;28;20498;-78
2021/05/11 01:01:52;;;;;;;4.30;3.63;;;;;;;;;;5028905;28;20041;-78
2021/05/11 01:04:18;;;;;;;4.75;3.78;;;;;;;;;;5035736;28;20052;-77
2021/05/11 01:06:44;;;;;;;5.10;4.32;;;;;;;;;;5035800;28;20037;-77
2021/05/11 01:09:09;;;;;;;4.28;3.88;;;;;;;;;;5022160;28;20459;-77
2021/05/11 01:11:36;;;;;;;5.00;4.38;;;;;;;;;;5037158;28;20033;-78
2021/05/11 01:14:02;;;;;;;6.10;3.80;;;;;;;;;;5055253;28;20076;-77
2021/05/11 01:16:30;;;;;;;5.70;3.60;;;;;;;;;;5055214;28;20537;-78
2021/05/11 01:19:01;;;;;;;4.00;3.55;;;;;;;;;;5055073;28;20032;-78
2021/05/11 01:21:39;;;;;;;7.28;3.53;;;;;;;;;;5055007;28;20037;-77
2021/05/11 01:24:12;;;;;;;4.20;3.80;;;;;;;;;;5036636;28;20040;-77
2021/05/11 01:26:55;;;;;;;4.68;4.28;;;;;;;;;;5036783;28;20029;-78
2021/05/11 01:29:36;;;;;;;4.82;4.30;;;;;;;;;;5054913;28;20041;-77
2021/05/11 01:32:35;;;;;;;5.07;4.45;;;;;;;;;;5030125;28;20053;-78
2021/05/11 01:48:51;;;;;;;5.93;5.32;;;;;;;;;;5038480;28;20493;-77
2021/05/11 01:59:29;;;;;;;7.15;5.82;;;;;;;;;;5057156;28;20430;-77
2021/05/11 02:23:31;;;;;;;8.32;7.20;;;;;;;;;;5058382;28;20045;-79
2021/05/11 02:25:57;;;;;;;8.52;7.22;;;;;;;;;;5061358;28;20059;-78
2021/05/11 02:28:23;;;;;;;8.20;6.93;;;;;;;;;;5029036;28;20041;-78
2021/05/11 02:30:49;;;;;;;7.47;6.70;;;;;;;;;;5045662;28;20067;-77
2021/05/11 02:33:14;;;;;;;8.93;7.22;;;;;;;;;;5047014;28;20067;-78
2021/05/11 02:35:40;;;;;;;8.25;7.45;;;;;;;;;;5061969;28;20091;-78
2021/05/11 02:38:05;;;;;;;8.15;6.82;;;;;;;;;;5065941;28;20510;-78
2021/05/11 02:40:30;;;;;;;8.55;7.57;;;;;;;;;;5063248;28;20036;-78
2021/05/11 02:43:01;;;;;;;8.43;7.53;;;;;;;;;;5063585;28;20113;-78
2021/05/11 02:45:26;;;;;;;8.20;7.35;;;;;;;;;;5062271;28;20040;-78
2021/05/11 02:47:52;;;;;;;7.97;6.55;;;;;;;;;;5062952;28;20048;-79
2021/05/11 02:50:22;;;;;;;8.88;6.38;;;;;;;;;;5042596;28;20045;-78
2021/05/11 02:52:48;;;;;;;6.68;5.65;;;;;;;;;;5062702;28;20036;-79
2021/05/11 02:55:15;;;;;;;7.53;5.32;;;;;;;;;;5057256;28;20091;-78
2021/05/11 02:57:40;;;;;;;6.32;5.70;;;;;;;;;;5060009;28;20054;-78
2021/05/11 03:00:07;;;;;;;8.00;5.25;;;;;;;;;;5057963;28;20108;-78
2021/05/11 03:02:33;;;;;;;6.90;6.20;;;;;;;;;;5043042;28;20036;-80
2021/05/11 03:04:58;;;;;;;8.52;6.10;;;;;;;;;;5061696;28;20100;-80
2021/05/11 03:07:24;;;;;;;8.02;7.22;;;;;;;;;;5061555;28;20041;-80
2021/05/11 03:09:49;;;;;;;7.60;6.90;;;;;;;;;;5066913;28;20032;-79
2021/05/11 03:12:15;;;;;;;8.40;6.88;;;;;;;;;;5071826;28;20060;-79
2021/05/11 03:14:41;;;;;;;10.88;6.63;;;;;;;;;;5067401;28;20438;-79
2021/05/11 03:17:06;;;;;;;6.38;5.78;;;;;;;;;;5066178;28;20032;-79
2021/05/11 03:19:31;;;;;;;6.10;5.50;;;;;;;;;;5064909;28;20041;-79
2021/05/11 03:21:57;;;;;;;7.05;5.63;;;;;;;;;;5064831;28;20144;-79
2021/05/11 03:24:22;;;;;;;10.50;5.70;;;;;;;;;;5064998;28;20116;-79
2021/05/11 03:26:49;;;;;;;6.18;5.35;;;;;;;;;;5046894;28;20041;-79
2021/05/11 03:29:15;;;;;;;9.13;6.15;;;;;;;;;;5045747;28;20441;-78
2021/05/11 03:31:40;;;;;;;7.00;6.30;;;;;;;;;;5057955;28;20060;-79
2021/05/11 03:34:05;;;;;;;7.28;5.65;;;;;;;;;;5040052;28;20065;-79
2021/05/11 03:36:31;;;;;;;6.38;5.70;;;;;;;;;;5062075;28;20047;-79
2021/05/11 03:38:59;;;;;;;6.80;5.80;;;;;;;;;;5062141;28;20118;-78
2021/05/11 03:41:28;;;;;;;7.10;5.65;;;;;;;;;;5061603;28;20099;-79
2021/05/11 03:44:06;;;;;;;5.28;4.78;;;;;;;;;;5061950;28;20120;-79
2021/05/11 03:46:33;;;;;;;7.88;5.13;;;;;;;;;;5043113;28;20037;-79
2021/05/11 03:48:59;;;;;;;5.70;5.10;;;;;;;;;;5061505;28;20440;-79
2021/05/11 03:51:24;;;;;;;6.05;5.45;;;;;;;;;;5025885;28;20029;-79
2021/05/11 03:53:50;;;;;;;6.30;5.18;;;;;;;;;;5060765;28;20036;-79
2021/05/11 03:56:15;;;;;;;6.80;5.50;;;;;;;;;;5060263;28;20083;-79
2021/05/11 03:58:41;;;;;;;6.07;5.47;;;;;;;;;;5059803;28;20048;-79
2021/05/11 04:01:06;;;;;;;9.35;6.50;;;;;;;;;;5065210;28;20029;-79
2021/05/11 04:03:32;;;;;;;7.57;5.72;;;;;;;;;;5066905;28;20033;-79
2021/05/11 04:05:59;;;;;;;6.30;5.45;;;;;;;;;;5066318;28;20092;-79
2021/05/11 04:08:38;;;;;;;6.45;5.53;;;;;;;;;;5047933;28;20047;-79
2021/05/11 04:16:21;;;;;;;8.20;7.40;;;;;;;;;;5065491;28;20083;-79
2021/05/11 04:18:46;;;;;;;9.10;7.20;;;;;;;;;;5065289;28;20040;-79
2021/05/11 04:21:12;;;;;;;6.25;5.60;;;;;;;;;;5066064;28;20413;-79
2021/05/11 04:23:37;;;;;;;7.88;6.13;;;;;;;;;;5046421;28;20048;-78
2021/05/11 04:26:03;;;;;;;5.68;5.07;;;;;;;;;;5064516;28;20089;-79
2021/05/11 04:28:28;;;;;;;5.13;4.28;;;;;;;;;;5064300;28;20044;-79
2021/05/11 04:30:53;;;;;;;8.35;4.40;;;;;;;;;;5061646;28;20052;-79
2021/05/11 04:33:19;;;;;;;3.88;3.53;;;;;;;;;;5042188;28;20102;-79
2021/05/11 04:35:44;;;;;;;5.03;4.43;;;;;;;;;;5059751;28;20515;-79
2021/05/11 04:38:09;;;;;;;5.57;3.95;;;;;;;;;;5043216;28;20113;-78
2021/05/11 04:40:35;;;;;;;4.50;4.10;;;;;;;;;;5048892;28;20041;-79
2021/05/11 04:43:00;;;;;;;6.30;4.40;;;;;;;;;;5047257;28;20047;-79
2021/05/11 04:45:27;;;;;;;5.82;4.18;;;;;;;;;;5065513;28;20577;-79
2021/05/11 04:47:53;;;;;;;6.22;4.70;;;;;;;;;;5046732;28;20444;-79
2021/05/11 04:50:22;;;;;;;4.40;4.00;;;;;;;;;;5066079;28;20033;-79
2021/05/11 04:52:49;;;;;;;5.35;4.50;;;;;;;;;;5066103;28;20025;-79
2021/05/11 04:55:15;;;;;;;5.47;4.88;;;;;;;;;;5065759;28;20516;-79
2021/05/11 04:57:40;;;;;;;6.38;5.10;;;;;;;;;;5067768;28;20041;-79
2021/05/11 05:00:09;;;;;;;6.70;4.38;;;;;;;;;;5066967;28;20037;-79
2021/05/11 05:02:36;;;;;;;5.00;3.90;;;;;;;;;;5067425;28;20037;-79
2021/05/11 05:05:02;;;;;;;4.53;3.95;;;;;;;;;;5049872;28;20041;-79
2021/05/11 05:07:27;;;;;;;6.65;4.00;;;;;;;;;;5067948;28;20033;-79
2021/05/11 05:09:53;;;;;;;4.80;4.00;;;;;;;;;;5067615;28;20120;-79
2021/05/11 05:12:18;;;;;;;3.95;3.53;;;;;;;;;;5048106;28;20028;-79
2021/05/11 05:14:44;;;;;;;5.50;3.60;;;;;;;;;;5065334;28;20029;-79
2021/05/11 05:17:10;;;;;;;4.47;3.00;;;;;;;;;;5042892;28;20029;-79
2021/05/11 05:19:35;;;;;;;4.38;3.05;;;;;;;;;;5041260;28;20036;-77
2021/05/11 05:22:02;;;;;;;3.22;2.92;;;;;;;;;;5060652;28;20502;-86
2021/05/11 05:24:34;;;;;;;5.00;3.35;;;;;;;;;;5042071;28;20044;-80
2021/05/11 05:27:10;;;;;;;3.97;3.58;;;;;;;;;;5063704;28;20037;-80
2021/05/11 05:29:35;;;;;;;6.60;3.85;;;;;;;;;;5061100;28;20041;-81
2021/05/11 05:32:00;;;;;;;3.50;3.13;;;;;;;;;;5060301;28;20044;-82
2021/05/11 05:34:26;;;;;;;3.72;3.42;;;;;;;;;;5059892;28;20036;-83
2021/05/11 05:36:51;;;;;;;9.38;3.67;;;;;;;;;;5024788;28;20132;-82
2021/05/11 05:39:17;;;;;;;5.90;3.70;;;;;;;;;;5062036;28;20043;-82
2021/05/11 05:41:43;;;;;;;4.75;4.25;;;;;;;;;;5049650;28;20034;-83
2021/05/11 05:44:08;;;;;;;5.80;3.10;;;;;;;;;;5006242;28;20068;-85
2021/05/11 05:46:33;;;;;;;6.30;3.83;;;;;;;;;;5039341;28;20045;-82
2021/05/11 05:48:59;;;;;;;5.75;4.60;;;;;;;;;;5021586;28;20067;-80
2021/05/11 05:51:26;;;;;;;5.57;5.07;;;;;;;;;;5005235;28;20483;-84
2021/05/11 05:53:51;;;;;;;9.68;7.88;;;;;;;;;;5004631;28;20029;-77
2021/05/11 05:56:18;;;;;;;9.90;8.38;;;;;;;;;;5039013;28;20419;-80
2021/05/11 05:58:44;;;;;;;9.90;8.60;;;;;;;;;;5040114;28;20502;-75
2021/05/11 06:01:10;;;;;;;8.77;7.97;;;;;;;;;;5042331;28;20041;-78
2021/05/11 06:03:38;;;;;;;11.70;8.10;;;;;;;;;;5038373;28;20103;-77
2021/05/11 06:06:10;;;;;;;10.27;8.43;;;;;;;;;;5033531;28;20044;-77
2021/05/11 06:08:38;;;;;;;8.88;7.38;;;;;;;;;;5037198;28;20163;-79
2021/05/11 06:11:20;;;;;;;8.10;6.90;;;;;;;;;;5057892;28;20041;-79
2021/05/11 06:18:57;;;;;;;10.98;7.30;;;;;;;;;;5049769;28;20037;-77
2021/05/11 06:21:23;;;;;;;5.72;5.22;;;;;;;;;;5055089;28;20036;-77
2021/05/11 06:23:48;;;;;;;8.30;6.97;;;;;;;;;;5019330;28;20037;-77
2021/05/11 06:26:14;;;;;;;7.03;6.32;;;;;;;;;;5053753;28;20037;-74
2021/05/11 06:28:42;;;;;;;7.03;5.65;;;;;;;;;;5053668;28;20032;-77
2021/05/11 06:31:08;;;;;;;6.00;4.97;;;;;;;;;;5053514;28;20736;-77
2021/05/11 06:33:34;;;;;;;7.32;5.40;;;;;;;;;;5053867;28;20044;-77
2021/05/11 06:35:59;;;;;;;4.72;4.32;;;;;;;;;;5039682;28;20048;-78
2021/05/11 06:38:24;;;;;;;7.07;5.40;;;;;;;;;;5055065;28;20033;-78
2021/05/11 06:40:50;;;;;;;4.22;3.58;;;;;;;;;;5048837;28;20033;-79
2021/05/11 06:43:17;;;;;;;4.22;3.83;;;;;;;;;;5057554;28;20033;-78
2021/05/11 06:48:32;;;;;;;3.63;3.00;;;;;;;;;;5037683;28;20037;-78
2021/05/11 06:53:51;;;;;;;4.05;3.65;;;;;;;;;;5018376;28;20049;-78
2021/05/11 06:56:21;;;;;;;4.63;3.97;;;;;;;;;;5042269;28;20033;-78
2021/05/11 06:58:47;;;;;;;4.00;3.60;;;;;;;;;;5058803;28;20029;-78
2021/05/11 07:01:15;;;;;;;6.05;3.65;;;;;;;;;;5040598;28;20513;-78
2021/05/11 07:03:41;;;;;;;4.32;3.90;;;;;;;;;;5059531;28;20037;-78
2021/05/11 07:06:06;;;;;;;5.13;3.88;;;;;;;;;;5058965;28;20063;-78
2021/05/11 07:11:00;;;;;;;5.43;3.97;;;;;;;;;;5059064;28;20040;-78
2021/05/11 07:13:25;;;;;;;3.90;3.53;;;;;;;;;;5060614;28;20041;-78
2021/05/11 07:15:51;;;;;;;4.07;3.40;;;;;;;;;;5059424;28;20078;-78
2021/05/11 07:18:20;;;;;;;3.85;3.13;;;;;;;;;;5040077;28;20033;-77
2021/05/11 07:20:48;;;;;;;4.85;3.97;;;;;;;;;;5038832;28;20060;-78
2021/05/11 07:23:20;;;;;;;4.75;3.33;;;;;;;;;;5037606;28;20540;-84
2021/05/11 07:25:59;;;;;;;5.20;3.90;;;;;;;;;;5056886;28;20032;-80
2021/05/11 07:28:39;;;;;;;6.80;3.45;;;;;;;;;;5038501;28;20039;-80
2021/05/11 07:31:06;;;;;;;4.65;4.25;;;;;;;;;;5054760;28;20103;-81
2021/05/11 07:33:44;;;;;;;4.88;4.20;;;;;;;;;;5054955;28;20057;-81
2021/05/11 07:36:10;;;;;;;3.95;3.50;;;;;;;;;;5059068;28;20041;-82
2021/05/11 07:38:36;;;;;;;6.65;3.67;;;;;;;;;;5044434;28;20033;-82
2021/05/11 07:41:03;;;;;;;4.22;3.03;;;;;;;;;;5042435;28;20031;-84
2021/05/11 07:43:31;;;;;;;5.38;3.30;;;;;;;;;;5058899;28;20052;-80
2021/05/11 08:15:52;;;;;;;6.03;2.72;;;;;;;;;;5056740;28;20064;-80
2021/05/11 08:29:10;;;;;;;3.58;2.53;;;;;;;;;;5059610;28;20044;-78
2021/05/11 08:31:36;;;;;;;3.85;2.28;;;;;;;;;;5057876;28;20053;-76
2021/05/11 08:34:01;;;;;;;3.75;2.45;;;;;;;;;;5057778;28;20033;-79
2021/05/11 08:36:27;;;;;;;5.38;2.58;;;;;;;;;;5059657;28;20029;-80
2021/05/11 08:38:56;;;;;;;2.80;2.30;;;;;;;;;;5040871;28;20045;-76
2021/05/11 08:41:21;;;;;;;2.60;2.40;;;;;;;;;;5040220;28;20037;-84
2021/05/11 08:43:47;;;;;;;4.07;2.53;;;;;;;;;;5038019;28;20029;-77
2021/05/11 08:46:13;;;;;;;4.85;2.92;;;;;;;;;;5055374;28;20072;-77
2021/05/11 08:48:39;;;;;;;6.00;2.50;;;;;;;;;;5037236;28;20131;-77
2021/05/11 08:51:12;;;;;;;11.40;3.67;;;;;;;;;;5055090;28;20077;-74
2021/05/11 09:24:45;;;;;;;4.45;2.95;;;;;;;;;;5054216;28;20143;-75
2021/05/11 09:29:44;;;;;;;5.63;3.03;;;;;;;;;;5054525;28;20037;-77
2021/05/11 09:56:53;;;;;;;3.65;2.63;;;;;;;;;;5053607;28;20037;-77
2021/05/11 10:14:14;;;;;;;4.18;2.60;;;;;;;;;;5053700;28;20032;-74
2021/05/11 10:36:39;;;;;;;3.60;2.30;;;;;;;;;;5053062;28;20179;-74
2021/05/11 10:46:54;;;;;;;3.03;2.05;;;;;;;;;;5052773;28;20029;-74
2021/05/11 10:49:31;;;;;;;7.57;2.50;;;;;;;;;;5018604;28;20135;-74
2021/05/11 10:52:27;;;;;;;4.72;2.50;;;;;;;;;;5018586;28;20037;-74
2021/05/11 10:55:16;;;;;;;;;;;;;;;;;;5053162;28;20119;-74
2021/05/11 11:00:32;;;;;;;4.00;2.38;;;;;;;;;;5053201;28;20043;-74
2021/05/11 11:03:25;;;;;;;8.30;2.40;;;;;;;;;;5052828;28;20040;-74
2021/05/11 11:05:56;;;;;;;4.45;2.33;;;;;;;;;;5052613;28;20098;-75
2021/05/11 11:08:39;;;;;;;3.70;2.20;;;;;;;;;;5052359;28;20043;-75
2021/05/11 11:11:20;;;;;;;6.38;2.60;;;;;;;;;;5034680;28;20071;-76
2021/05/11 11:13:50;;;;;;;11.02;2.90;;;;;;;;;;5033582;28;20561;-75
2021/05/11 11:16:17;;;;;;;3.78;2.33;;;;;;;;;;5052709;28;20119;-75
2021/05/11 11:18:44;;;;;;;3.90;2.67;;;;;;;;;;5052431;28;20033;-77
2021/05/11 11:23:50;;;;;;;7.97;3.03;;;;;;;;;;5052323;28;20375;-76
2021/05/11 11:26:29;;;;;;;3.97;2.63;;;;;;;;;;5052660;28;20044;-75
2021/05/11 11:29:06;;;;;;;4.95;3.30;;;;;;;;;;5044741;28;20139;-76
2021/05/11 11:31:40;;;;;;;4.10;2.80;;;;;;;;;;5034452;28;20041;-76
2021/05/11 11:34:19;;;;;;;7.93;3.03;;;;;;;;;;5052869;28;20055;-76
2021/05/11 11:36:46;;;;;;;4.75;2.58;;;;;;;;;;5052699;28;20487;-77
2021/05/11 11:39:17;;;;;;;5.75;3.13;;;;;;;;;;5052826;28;20052;-76
2021/05/11 11:41:43;;;;;;;4.65;2.70;;;;;;;;;;5051452;28;20366;-74
2021/05/11 11:44:11;;;;;;;6.40;2.90;;;;;;;;;;5034548;28;20037;-76
2021/05/11 11:46:37;;;;;;;9.00;3.83;;;;;;;;;;5052286;28;20123;-77
2021/05/11 11:49:11;;;;;;;5.10;2.85;;;;;;;;;;5052454;28;20037;-76
2021/05/11 11:51:37;;;;;;;5.53;2.72;;;;;;;;;;5034427;28;20041;-74
2021/05/11 11:54:23;;;;;;;5.13;3.15;;;;;;;;;;5052296;28;20423;-76
2021/05/11 11:59:33;;;;;;;6.30;2.78;;;;;;;;;;5037890;28;20598;-75
2021/05/11 12:02:01;;;;;;;3.10;2.50;;;;;;;;;;5056537;28;20084;-77
2021/05/11 12:04:28;;;;;;;6.05;2.85;;;;;;;;;;5038856;28;20402;-78
2021/05/11 12:06:54;;;;;;;4.47;3.08;;;;;;;;;;5022403;28;20025;-77
2021/05/11 12:09:20;;;;;;;8.50;4.50;;;;;;;;;;5055810;28;20033;-78
2021/05/11 12:11:47;;;;;;;5.60;3.88;;;;;;;;;;5057872;28;20040;-77
2021/05/11 12:14:16;;;;;;;6.00;3.35;;;;;;;;;;5058305;28;20467;-78
2021/05/11 12:16:45;;;;;;;7.05;3.40;;;;;;;;;;5058500;28;20198;-78
2021/05/11 12:19:17;;;;;;;4.68;3.08;;;;;;;;;;5059050;28;20064;-79
2021/05/11 12:21:57;;;;;;;3.83;3.10;;;;;;;;;;5040573;28;20110;-77
2021/05/11 12:24:28;;;;;;;6.18;3.38;;;;;;;;;;5057125;28;20037;-79
2021/05/11 12:27:09;;;;;;;7.72;3.30;;;;;;;;;;5048403;28;20099;-77
2021/05/11 12:29:35;;;;;;;5.10;3.40;;;;;;;;;;5039268;28;20052;-76
2021/05/11 12:32:00;;;;;;;4.10;3.30;;;;;;;;;;5055786;28;20049;-77
2021/05/11 12:34:26;;;;;;;5.30;2.80;;;;;;;;;;5056478;28;20044;-77
2021/05/11 12:36:58;;;;;;;6.88;3.90;;;;;;;;;;5055810;28;20036;-75
2021/05/11 12:39:36;;;;;;;6.53;3.40;;;;;;;;;;5054728;28;20044;-75
2021/05/11 12:42:15;;;;;;;4.43;3.28;;;;;;;;;;5056948;28;20036;-79
2021/05/11 12:44:40;;;;;;;4.93;2.65;;;;;;;;;;5039961;28;20037;-79
2021/05/11 12:47:06;;;;;;;3.85;2.85;;;;;;;;;;5056949;28;20048;-77
2021/05/11 12:49:32;;;;;;;4.63;3.13;;;;;;;;;;5059611;28;20041;-78
2021/05/11 12:51:57;;;;;;;4.85;3.25;;;;;;;;;;5058392;28;20041;-77
2021/05/11 12:54:37;;;;;;;4.07;3.08;;;;;;;;;;5056005;28;20037;-78
2021/05/11 13:02:23;;;;;;;5.57;3.70;;;;;;;;;;5061813;28;19913;-78
2021/05/11 13:20:56;;;;;;;6.25;3.20;;;;;;;;;;5054408;28;20087;-75
2021/05/11 13:26:12;;;;;;;3.92;3.10;;;;;;;;;;5036880;28;20047;-75
2021/05/11 13:31:38;;;;;;;7.30;3.40;;;;;;;;;;4992736;28;20536;-75
2021/05/11 13:34:11;;;;;;;5.65;3.20;;;;;;;;;;5034223;28;20033;-74
2021/05/11 13:36:40;;;;;;;5.03;3.60;;;;;;;;;;5019106;28;20043;-74
2021/05/11 13:39:09;;;;;;;7.35;3.63;;;;;;;;;;5044446;28;20120;-74
2021/05/11 13:41:34;;;;;;;9.77;4.63;;;;;;;;;;5038007;28;20044;-74
2021/05/11 13:44:00;;;;;;;4.82;3.75;;;;;;;;;;5042766;28;20490;-74
2021/05/11 13:46:25;;;;;;;5.75;3.88;;;;;;;;;;5042420;28;20490;-74
2021/05/11 13:48:51;;;;;;;6.80;3.83;;;;;;;;;;5044459;28;20059;-74
2021/05/11 13:51:18;;;;;;;6.20;3.63;;;;;;;;;;5042890;28;20037;-74
2021/05/11 13:53:48;;;;;;;8.27;3.80;;;;;;;;;;5024883;28;20486;-74
2021/05/11 14:04:09;;;;;;;9.63;3.60;;;;;;;;;;5041015;28;20034;-74
2021/05/11 14:06:35;;;;;;;5.55;3.60;;;;;;;;;;5043490;28;20047;-74
2021/05/11 14:09:00;;;;;;;7.07;3.22;;;;;;;;;;5006231;28;20025;-74
2021/05/11 14:11:27;;;;;;;7.65;3.20;;;;;;;;;;5044024;28;20033;-74
2021/05/11 14:13:52;;;;;;;5.40;4.10;;;;;;;;;;5018266;28;20455;-74
2021/05/11 14:16:18;;;;;;;6.75;2.97;;;;;;;;;;5042931;28;20103;-74
2021/05/11 14:18:44;;;;;;;9.77;3.72;;;;;;;;;;5009574;28;20375;-74
2021/05/11 14:21:10;;;;;;;5.47;3.10;;;;;;;;;;5041565;28;20030;-74
2021/05/11 14:23:35;;;;;;;3.60;3.10;;;;;;;;;;5043268;28;20036;-74
2021/05/11 14:26:01;;;;;;;12.40;3.75;;;;;;;;;;5039974;28;20536;-74
2021/05/11 14:28:26;;;;;;;4.50;3.20;;;;;;;;;;5041628;28;20075;-74
2021/05/11 14:30:52;;;;;;;7.40;3.35;;;;;;;;;;5025762;28;20064;-75
2021/05/11 14:33:17;;;;;;;8.93;5.10;;;;;;;;;;5039030;28;20057;-75
2021/05/11 14:35:43;;;;;;;7.88;5.95;;;;;;;;;;5043262;28;20130;-75
2021/05/11 14:38:08;;;;;;;10.13;4.75;;;;;;;;;;5043365;28;20044;-75
2021/05/11 14:40:34;;;;;;;7.72;5.20;;;;;;;;;;5023327;28;20478;-75
2021/05/11 14:42:59;;;;;;;6.53;3.92;;;;;;;;;;5033232;28;20505;-75
2021/05/11 14:45:26;;;;;;;6.10;4.65;;;;;;;;;;5015405;28;20442;-75
2021/05/11 14:47:53;;;;;;;6.85;4.53;;;;;;;;;;5033287;28;20116;-75
2021/05/11 14:50:20;;;;;;;5.03;4.50;;;;;;;;;;5033181;28;20033;-75
2021/05/11 14:52:45;;;;;;;8.45;4.38;;;;;;;;;;5032964;28;20033;-75
2021/05/11 14:55:14;;;;;;;6.95;4.40;;;;;;;;;;5032148;28;20426;-75
2021/05/11 14:57:40;;;;;;;7.22;4.10;;;;;;;;;;5032928;28;20041;-75
2021/05/11 15:00:06;;;;;;;6.18;4.15;;;;;;;;;;5033217;28;20029;-75
2021/05/11 15:02:31;;;;;;;5.60;3.55;;;;;;;;;;5032751;28;20041;-75
2021/05/11 15:04:57;;;;;;;5.75;4.15;;;;;;;;;;5032758;28;20462;-75
2021/05/11 15:07:22;;;;;;;5.38;4.00;;;;;;;;;;5032727;28;20026;-75
2021/05/11 15:09:48;;;;;;;5.63;4.40;;;;;;;;;;5033027;28;20225;-75
2021/05/11 15:12:13;;;;;;;6.63;4.93;;;;;;;;;;5015005;28;20464;-75
2021/05/11 15:14:39;;;;;;;4.20;3.72;;;;;;;;;;5032943;28;20087;-75
2021/05/11 15:19:54;;;;;;;4.32;3.17;;;;;;;;;;5032760;28;20383;-75
2021/05/11 15:22:22;;;;;;;5.13;3.58;;;;;;;;;;5031958;28;20045;-75
2021/05/11 15:24:49;;;;;;;6.47;4.00;;;;;;;;;;5032082;28;20033;-75
2021/05/11 15:27:16;;;;;;;6.68;4.00;;;;;;;;;;5032157;28;20060;-75
2021/05/11 15:29:42;;;;;;;6.35;3.90;;;;;;;;;;5032862;28;20580;-75
2021/05/11 15:32:45;;;;;;;6.38;3.42;;;;;;;;;;5029244;28;20098;-75
2021/05/11 15:35:15;;;;;;;10.18;3.95;;;;;;;;;;5056588;28;20385;-75
2021/05/11 15:37:43;;;;;;;4.80;3.92;;;;;;;;;;5056464;28;20487;-73
2021/05/11 15:40:11;;;;;;;3.75;3.40;;;;;;;;;;5056296;28;20033;-73
2021/05/11 15:42:37;;;;;;;4.85;3.97;;;;;;;;;;5056259;28;20073;-73
2021/05/11 15:45:04;;;;;;;4.90;4.00;;;;;;;;;;5056495;28;20479;-73
2021/05/11 15:47:30;;;;;;;4.90;3.60;;;;;;;;;;5038415;28;20386;-74
2021/05/11 15:49:55;;;;;;;5.65;4.38;;;;;;;;;;5055665;28;20032;-75
2021/05/11 15:52:21;;;;;;;7.53;4.28;;;;;;;;;;5056207;28;20044;-75
2021/05/11 15:54:48;;;;;;;4.93;4.20;;;;;;;;;;5056332;28;20065;-75
2021/05/11 15:57:13;;;;;;;5.00;4.25;;;;;;;;;;5038082;28;20138;-75
2021/05/11 15:59:39;;;;;;;7.00;3.85;;;;;;;;;;5056177;28;20072;-75
2021/05/11 16:02:04;;;;;;;5.47;3.83;;;;;;;;;;5056229;28;20037;-75
2021/05/11 16:04:30;;;;;;;6.82;4.05;;;;;;;;;;5055781;28;20128;-75
2021/05/11 16:06:55;;;;;;;7.50;3.80;;;;;;;;;;5056084;28;20033;-75
2021/05/11 16:09:21;;;;;;;9.48;3.90;;;;;;;;;;5055098;28;20478;-75
2021/05/11 16:11:47;;;;;;;7.30;4.43;;;;;;;;;;5037878;28;20033;-75
2021/05/11 16:14:12;;;;;;;7.13;4.07;;;;;;;;;;5055947;28;20433;-75
2021/05/11 16:16:37;;;;;;;4.68;3.85;;;;;;;;;;5038088;28;20360;-75
2021/05/11 16:19:03;;;;;;;6.03;4.20;;;;;;;;;;5055943;28;20167;-75
2021/05/11 16:21:28;;;;;;;4.78;3.95;;;;;;;;;;5055883;28;20032;-75
2021/05/11 16:23:56;;;;;;;4.95;3.28;;;;;;;;;;5037689;28;20391;-75
2021/05/11 16:26:21;;;;;;;4.55;3.60;;;;;;;;;;5055638;28;20120;-75
2021/05/11 16:28:49;;;;;;;5.93;3.80;;;;;;;;;;5055567;28;20080;-75
2021/05/11 16:31:16;;;;;;;6.03;3.50;;;;;;;;;;5055443;28;20122;-74
2021/05/11 16:33:41;;;;;;;6.15;3.35;;;;;;;;;;5055791;28;20045;-75
2021/05/11 16:36:06;;;;;;;5.78;3.33;;;;;;;;;;5055537;28;20085;-75
2021/05/11 16:38:32;;;;;;;5.65;3.47;;;;;;;;;;5055334;28;20090;-75
2021/05/11 16:40:57;;;;;;;7.13;3.55;;;;;;;;;;5055081;28;20044;-75
2021/05/11 16:43:23;;;;;;;4.15;3.00;;;;;;;;;;5054112;28;20119;-75
2021/05/11 16:45:50;;;;;;;3.85;3.25;;;;;;;;;;5054679;28;20037;-75
2021/05/11 16:48:16;;;;;;;4.05;3.10;;;;;;;;;;5055453;28;20039;-75
2021/05/11 16:50:42;;;;;;;5.22;3.60;;;;;;;;;;5037430;28;20089;-75
2021/05/11 16:53:13;;;;;;;4.15;2.95;;;;;;;;;;5055408;28;20067;-75
2021/05/11 16:55:39;;;;;;;3.78;3.38;;;;;;;;;;5054828;28;20400;-75
2021/05/11 16:58:04;;;;;;;5.03;2.97;;;;;;;;;;5054209;28;20029;-75
2021/05/11 17:00:31;;;;;;;5.53;3.00;;;;;;;;;;5054424;28;20037;-75
2021/05/11 17:02:58;;;;;;;3.40;2.92;;;;;;;;;;5036942;28;20043;-75
2021/05/11 17:05:24;;;;;;;4.80;2.95;;;;;;;;;;5054986;28;20029;-74
2021/05/11 17:07:50;;;;;;;6.20;2.92;;;;;;;;;;5054518;28;20037;-75
2021/05/11 17:10:16;;;;;;;4.30;3.20;;;;;;;;;;5037133;28;20144;-75
2021/05/11 17:12:42;;;;;;;3.80;2.78;;;;;;;;;;5054665;28;20063;-75
2021/05/11 17:15:08;;;;;;;6.43;2.80;;;;;;;;;;5054329;28;20151;-75
2021/05/11 17:17:33;;;;;;;5.50;3.28;;;;;;;;;;5054443;28;20053;-75
2021/05/11 17:19:59;;;;;;;3.95;3.05;;;;;;;;;;5055038;28;20068;-75
2021/05/11 17:22:24;;;;;;;4.00;3.22;;;;;;;;;;5054687;28;20478;-74
2021/05/11 17:24:50;;;;;;;5.88;3.20;;;;;;;;;;5045484;28;20041;-74
2021/05/11 17:27:15;;;;;;;4.50;3.47;;;;;;;;;;5058840;28;20028;-74
2021/05/11 17:29:41;;;;;;;7.53;3.95;;;;;;;;;;5066163;28;20086;-74
2021/05/11 17:32:11;;;;;;;6.72;4.30;;;;;;;;;;5050204;28;20045;-74
2021/05/11 17:34:36;;;;;;;3.55;3.22;;;;;;;;;;5054690;28;20048;-74
2021/05/11 17:37:02;;;;;;;5.25;3.50;;;;;;;;;;5054250;28;20029;-74
2021/05/11 17:39:27;;;;;;;4.85;3.88;;;;;;;;;;5053630;28;20037;-77
2021/05/11 17:41:52;;;;;;;3.83;3.25;;;;;;;;;;5054315;28;20036;-76
2021/05/11 17:44:18;;;;;;;4.55;3.05;;;;;;;;;;5054306;28;20040;-75
2021/05/11 17:46:43;;;;;;;4.57;3.47;;;;;;;;;;5036242;28;20033;-75
2021/05/11 17:49:08;;;;;;;5.13;3.78;;;;;;;;;;5053672;28;20379;-78
2021/05/11 17:51:34;;;;;;;4.90;3.70;;;;;;;;;;5054026;28;20517;-76
2021/05/11 17:53:59;;;;;;;5.50;4.28;;;;;;;;;;5053349;28;20626;-76
2021/05/11 17:56:29;;;;;;;6.10;3.83;;;;;;;;;;5053930;28;20044;-78
2021/05/11 17:58:55;;;;;;;5.63;4.22;;;;;;;;;;5056735;28;20033;-82
2021/05/11 18:01:21;;;;;;;6.50;3.85;;;;;;;;;;5056460;28;20100;-76
2021/05/11 18:03:48;;;;;;;9.57;4.95;;;;;;;;;;5036963;28;20037;-75
2021/05/11 18:06:14;;;;;;;11.70;4.53;;;;;;;;;;5053800;28;20029;-76
2021/05/11 18:08:40;;;;;;;7.85;3.83;;;;;;;;;;5053052;28;20040;-76
2021/05/11 18:11:05;;;;;;;8.82;4.18;;;;;;;;;;5018943;28;20036;-76
2021/05/11 18:13:32;;;;;;;5.20;3.70;;;;;;;;;;5053951;28;20044;-77
2021/05/11 18:15:59;;;;;;;4.70;3.75;;;;;;;;;;5053720;28;20124;-78
2021/05/11 18:18:25;;;;;;;4.82;3.90;;;;;;;;;;5053502;28;20041;-76
2021/05/11 18:20:51;;;;;;;6.75;4.32;;;;;;;;;;5052415;28;20332;-77
2021/05/11 18:23:16;;;;;;;7.95;3.60;;;;;;;;;;5035570;28;20093;-76
2021/05/11 18:25:42;;;;;;;4.97;3.47;;;;;;;;;;5052397;28;20491;-77
2021/05/11 18:28:08;;;;;;;5.63;3.90;;;;;;;;;;5053403;28;20414;-77
2021/05/11 18:30:34;;;;;;;6.57;4.20;;;;;;;;;;5034455;28;20037;-76
2021/05/11 18:32:59;;;;;;;6.15;4.00;;;;;;;;;;5035555;28;20045;-77
2021/05/11 18:35:29;;;;;;;7.00;3.78;;;;;;;;;;5052423;28;20025;-77
2021/05/11 18:37:57;;;;;;;6.38;3.95;;;;;;;;;;5037939;28;20037;-77
2021/05/11 18:40:24;;;;;;;4.55;3.78;;;;;;;;;;5056172;28;20033;-76
2021/05/11 18:42:49;;;;;;;7.47;4.38;;;;;;;;;;5052382;28;20028;-76
2021/05/11 18:45:15;;;;;;;3.80;3.40;;;;;;;;;;5059695;28;20032;-76
2021/05/11 18:47:42;;;;;;;6.35;3.90;;;;;;;;;;5056332;28;20047;-76
2021/05/11 18:50:10;;;;;;;5.20;3.95;;;;;;;;;;5061001;28;20039;-76
2021/05/11 18:52:35;;;;;;;5.07;4.50;;;;;;;;;;5060987;28;20107;-77
2021/05/11 18:55:03;;;;;;;5.53;4.57;;;;;;;;;;5039639;28;20037;-77